Main page
METAR-TAF:

METAR-TAF

Airports :

Farnborough Airport

Farnborough, England

latitude: 51-17N, longitude: 000-46W, elevation: 65 m

Current weather observation

The report was made 24 minutes ago, at 23:50 UTC
Wind 7 kt from the West/Southwest
Temperature 14°C
Humidity 88%
Pressure 1008 hPa
Visibility 10 km or more

METAR: EGLF 302350Z AUTO 25007KT 9999 NCD 14/12 Q1008

Time: 01:14 (00:14 UTC)

Forecast

The report was made 4 hours and 16 minutes ago, at 19:58 UTC
Forecast valid from 30 at 21 UTC to 30 at 23 UTC
Wind 10 kt from the West
Visibility 10 km or more
Scattered clouds at a height of 4000 ft

TAF: EGLF 301958Z 3021/3023 27010KT 9999 SCT040

Weather observations and forecasts of more than 4000 airports (METAR and TAF reports).

The available stations are represented by yellow and red dots on the map.

Hover mouse over dot to see the name of the station.

Then click to see weather observations and forecasts.

To change the map : click on the green buttons with a black cross to zoom in, on the green button with a dash to zoom out, or on the green arrows for adjacent maps.


METAR-TAF: